sensor_id;sensor_type;location;lat;lon;timestamp;P1;durP1;ratioP1;P2;durP2;ratioP2
44606;SDS011;30315;46.072;14.474;2023-04-01T00:01:31;1.52;;;1.45;;
44606;SDS011;30315;46.072;14.474;2023-04-01T00:03:58;1.80;;;1.70;;
44606;SDS011;30315;46.072;14.474;2023-04-01T00:06:28;2.55;;;1.90;;
44606;SDS011;30315;46.072;14.474;2023-04-01T00:08:56;1.60;;;1.50;;
44606;SDS011;30315;46.072;14.474;2023-04-01T00:11:23;1.65;;;1.60;;
44606;SDS011;30315;46.072;14.474;2023-04-01T00:13:50;2.15;;;1.95;;
44606;SDS011;30315;46.072;14.474;2023-04-01T00:16:17;2.30;;;2.10;;
44606;SDS011;30315;46.072;14.474;2023-04-01T00:18:48;2.22;;;2.00;;
44606;SDS011;30315;46.072;14.474;2023-04-01T00:21:16;1.92;;;1.83;;
44606;SDS011;30315;46.072;14.474;2023-04-01T00:23:44;1.92;;;1.73;;
44606;SDS011;30315;46.072;14.474;2023-04-01T00:26:11;1.90;;;1.80;;
44606;SDS011;30315;46.072;14.474;2023-04-01T00:28:41;1.90;;;1.80;;
44606;SDS011;30315;46.072;14.474;2023-04-01T00:31:08;1.70;;;1.60;;
44606;SDS011;30315;46.072;14.474;2023-04-01T00:33:37;1.80;;;1.70;;
44606;SDS011;30315;46.072;14.474;2023-04-01T00:36:12;1.70;;;1.60;;
44606;SDS011;30315;46.072;14.474;2023-04-01T00:38:41;1.88;;;1.77;;
44606;SDS011;30315;46.072;14.474;2023-04-01T00:41:09;1.45;;;1.40;;
44606;SDS011;30315;46.072;14.474;2023-04-01T00:43:42;1.63;;;1.63;;
44606;SDS011;30315;46.072;14.474;2023-04-01T00:46:10;1.75;;;1.65;;
44606;SDS011;30315;46.072;14.474;2023-04-01T00:48:38;1.83;;;1.75;;
44606;SDS011;30315;46.072;14.474;2023-04-01T00:51:11;1.90;;;1.80;;
44606;SDS011;30315;46.072;14.474;2023-04-01T00:53:43;1.50;;;1.40;;
44606;SDS011;30315;46.072;14.474;2023-04-01T00:58:51;1.48;;;1.35;;
44606;SDS011;30315;46.072;14.474;2023-04-01T01:01:25;1.50;;;1.40;;
44606;SDS011;30315;46.072;14.474;2023-04-01T01:03:54;1.63;;;1.52;;
44606;SDS011;30315;46.072;14.474;2023-04-01T01:37:53;1.38;;;1.38;;
44606;SDS011;30315;46.072;14.474;2023-04-01T01:40:25;1.20;;;1.20;;
44606;SDS011;30315;46.072;14.474;2023-04-01T01:42:55;1.10;;;1.10;;
44606;SDS011;30315;46.072;14.474;2023-04-01T01:45:25;1.20;;;1.20;;
44606;SDS011;30315;46.072;14.474;2023-04-01T01:47:53;1.20;;;1.20;;
44606;SDS011;30315;46.072;14.474;2023-04-01T01:50:22;1.33;;;1.23;;
44606;SDS011;30315;46.072;14.474;2023-04-01T01:52:50;1.25;;;1.25;;
44606;SDS011;30315;46.072;14.474;2023-04-01T01:58:00;2.05;;;1.50;;
44606;SDS011;30315;46.072;14.474;2023-04-01T02:00:37;1.50;;;1.50;;
44606;SDS011;30315;46.072;14.474;2023-04-01T02:03:05;1.60;;;1.50;;
44606;SDS011;30315;46.072;14.474;2023-04-01T02:05:32;1.02;;;1.02;;
44606;SDS011;30315;46.072;14.474;2023-04-01T02:08:14;1.48;;;1.48;;
44606;SDS011;30315;46.072;14.474;2023-04-01T02:10:46;1.40;;;1.30;;
44606;SDS011;30315;46.072;14.474;2023-04-01T02:13:49;1.48;;;1.48;;
44606;SDS011;30315;46.072;14.474;2023-04-01T02:16:36;1.30;;;1.30;;
44606;SDS011;30315;46.072;14.474;2023-04-01T02:21:57;1.17;;;1.17;;
44606;SDS011;30315;46.072;14.474;2023-04-01T02:24:28;2.03;;;1.40;;
44606;SDS011;30315;46.072;14.474;2023-04-01T02:26:59;1.38;;;1.38;;
44606;SDS011;30315;46.072;14.474;2023-04-01T02:29:27;1.30;;;1.30;;
44606;SDS011;30315;46.072;14.474;2023-04-01T02:31:54;2.75;;;1.58;;
44606;SDS011;30315;46.072;14.474;2023-04-01T02:34:22;2.67;;;1.55;;
44606;SDS011;30315;46.072;14.474;2023-04-01T02:36:50;1.60;;;1.40;;
44606;SDS011;30315;46.072;14.474;2023-04-01T02:39:18;1.30;;;1.30;;
44606;SDS011;30315;46.072;14.474;2023-04-01T02:41:45;1.80;;;1.70;;
44606;SDS011;30315;46.072;14.474;2023-04-01T02:44:13;1.83;;;1.73;;
44606;SDS011;30315;46.072;14.474;2023-04-01T02:46:42;2.72;;;1.92;;
44606;SDS011;30315;46.072;14.474;2023-04-01T02:49:09;2.88;;;2.67;;
44606;SDS011;30315;46.072;14.474;2023-04-01T02:51:36;2.03;;;1.90;;
44606;SDS011;30315;46.072;14.474;2023-04-01T02:54:03;1.60;;;1.60;;
44606;SDS011;30315;46.072;14.474;2023-04-01T02:56:30;1.85;;;1.33;;
44606;SDS011;30315;46.072;14.474;2023-04-01T02:58:57;1.10;;;1.10;;
44606;SDS011;30315;46.072;14.474;2023-04-01T03:01:24;1.33;;;1.33;;
44606;SDS011;30315;46.072;14.474;2023-04-01T03:03:51;1.55;;;1.45;;
44606;SDS011;30315;46.072;14.474;2023-04-01T03:06:18;2.35;;;2.17;;
44606;SDS011;30315;46.072;14.474;2023-04-01T03:08:45;2.45;;;2.25;;
44606;SDS011;30315;46.072;14.474;2023-04-01T03:11:13;2.42;;;2.33;;
44606;SDS011;30315;46.072;14.474;2023-04-01T03:13:40;2.33;;;2.20;;
44606;SDS011;30315;46.072;14.474;2023-04-01T03:16:08;2.50;;;2.40;;
44606;SDS011;30315;46.072;14.474;2023-04-01T03:18:35;2.53;;;2.42;;
44606;SDS011;30315;46.072;14.474;2023-04-01T03:21:15;2.60;;;2.40;;
44606;SDS011;30315;46.072;14.474;2023-04-01T03:23:43;2.53;;;2.42;;
44606;SDS011;30315;46.072;14.474;2023-04-01T03:26:10;2.38;;;2.13;;
44606;SDS011;30315;46.072;14.474;2023-04-01T03:28:37;2.35;;;2.15;;
44606;SDS011;30315;46.072;14.474;2023-04-01T03:31:04;2.60;;;2.40;;
44606;SDS011;30315;46.072;14.474;2023-04-01T03:33:39;2.53;;;2.20;;
44606;SDS011;30315;46.072;14.474;2023-04-01T03:36:06;2.50;;;2.40;;
44606;SDS011;30315;46.072;14.474;2023-04-01T03:38:34;2.65;;;2.50;;
44606;SDS011;30315;46.072;14.474;2023-04-01T03:41:02;2.70;;;2.60;;
44606;SDS011;30315;46.072;14.474;2023-04-01T03:43:31;3.00;;;2.72;;
44606;SDS011;30315;46.072;14.474;2023-04-01T03:45:58;2.67;;;2.47;;
44606;SDS011;30315;46.072;14.474;2023-04-01T03:48:25;2.90;;;2.63;;
44606;SDS011;30315;46.072;14.474;2023-04-01T03:50:53;2.90;;;2.70;;
44606;SDS011;30315;46.072;14.474;2023-04-01T03:53:20;3.83;;;3.63;;
44606;SDS011;30315;46.072;14.474;2023-04-01T03:55:48;7.35;;;5.68;;
44606;SDS011;30315;46.072;14.474;2023-04-01T03:58:17;7.10;;;6.40;;
44606;SDS011;30315;46.072;14.474;2023-04-01T04:00:44;7.65;;;6.70;;
44606;SDS011;30315;46.072;14.474;2023-04-01T04:03:11;6.70;;;6.05;;
44606;SDS011;30315;46.072;14.474;2023-04-01T04:05:45;5.70;;;5.30;;
44606;SDS011;30315;46.072;14.474;2023-04-01T04:08:14;5.10;;;4.43;;
44606;SDS011;30315;46.072;14.474;2023-04-01T04:10:43;4.72;;;4.43;;
44606;SDS011;30315;46.072;14.474;2023-04-01T04:13:10;4.47;;;4.03;;
44606;SDS011;30315;46.072;14.474;2023-04-01T04:15:43;4.22;;;3.92;;
44606;SDS011;30315;46.072;14.474;2023-04-01T04:18:10;4.65;;;4.35;;
44606;SDS011;30315;46.072;14.474;2023-04-01T04:20:43;4.13;;;3.78;;
44606;SDS011;30315;46.072;14.474;2023-04-01T04:23:12;4.78;;;4.35;;
44606;SDS011;30315;46.072;14.474;2023-04-01T04:25:41;4.20;;;3.78;;
44606;SDS011;30315;46.072;14.474;2023-04-01T04:28:08;3.88;;;3.58;;
44606;SDS011;30315;46.072;14.474;2023-04-01T04:30:35;4.05;;;3.75;;
44606;SDS011;30315;46.072;14.474;2023-04-01T04:33:02;5.07;;;4.20;;
44606;SDS011;30315;46.072;14.474;2023-04-01T04:35:30;4.93;;;4.55;;
44606;SDS011;30315;46.072;14.474;2023-04-01T04:37:57;5.03;;;4.72;;
44606;SDS011;30315;46.072;14.474;2023-04-01T04:40:24;4.47;;;4.03;;
44606;SDS011;30315;46.072;14.474;2023-04-01T04:42:51;5.05;;;4.75;;
44606;SDS011;30315;46.072;14.474;2023-04-01T04:45:18;4.38;;;4.18;;
44606;SDS011;30315;46.072;14.474;2023-04-01T04:47:52;4.88;;;4.57;;
44606;SDS011;30315;46.072;14.474;2023-04-01T04:50:19;4.60;;;4.25;;
44606;SDS011;30315;46.072;14.474;2023-04-01T04:52:46;5.03;;;4.57;;
44606;SDS011;30315;46.072;14.474;2023-04-01T04:55:13;4.85;;;4.45;;
44606;SDS011;30315;46.072;14.474;2023-04-01T04:57:45;4.80;;;4.45;;
44606;SDS011;30315;46.072;14.474;2023-04-01T05:00:11;4.30;;;4.00;;
44606;SDS011;30315;46.072;14.474;2023-04-01T05:02:47;5.25;;;4.88;;
44606;SDS011;30315;46.072;14.474;2023-04-01T05:05:14;4.80;;;4.47;;
44606;SDS011;30315;46.072;14.474;2023-04-01T05:07:41;5.03;;;4.63;;
44606;SDS011;30315;46.072;14.474;2023-04-01T05:10:08;4.88;;;4.20;;
44606;SDS011;30315;46.072;14.474;2023-04-01T05:12:35;5.05;;;4.65;;
44606;SDS011;30315;46.072;14.474;2023-04-01T05:15:07;5.63;;;5.22;;
44606;SDS011;30315;46.072;14.474;2023-04-01T05:17:35;5.75;;;5.32;;
44606;SDS011;30315;46.072;14.474;2023-04-01T05:20:03;5.18;;;4.78;;
44606;SDS011;30315;46.072;14.474;2023-04-01T05:22:30;5.78;;;4.55;;
44606;SDS011;30315;46.072;14.474;2023-04-01T05:24:57;4.25;;;3.95;;
44606;SDS011;30315;46.072;14.474;2023-04-01T05:27:24;4.68;;;4.38;;
44606;SDS011;30315;46.072;14.474;2023-04-01T05:29:51;4.97;;;4.57;;
44606;SDS011;30315;46.072;14.474;2023-04-01T05:32:48;5.35;;;4.95;;
44606;SDS011;30315;46.072;14.474;2023-04-01T05:35:15;5.80;;;5.40;;
44606;SDS011;30315;46.072;14.474;2023-04-01T05:37:43;7.57;;;6.82;;
44606;SDS011;30315;46.072;14.474;2023-04-01T05:40:10;8.20;;;7.45;;
44606;SDS011;30315;46.072;14.474;2023-04-01T05:42:37;9.25;;;8.35;;
44606;SDS011;30315;46.072;14.474;2023-04-01T05:45:05;9.77;;;8.93;;
44606;SDS011;30315;46.072;14.474;2023-04-01T05:47:51;61.42;;;9.43;;
44606;SDS011;30315;46.072;14.474;2023-04-01T05:50:18;9.38;;;8.50;;
44606;SDS011;30315;46.072;14.474;2023-04-01T05:52:45;9.93;;;8.95;;
44606;SDS011;30315;46.072;14.474;2023-04-01T05:55:13;9.75;;;8.85;;
44606;SDS011;30315;46.072;14.474;2023-04-01T05:57:40;10.07;;;9.18;;
44606;SDS011;30315;46.072;14.474;2023-04-01T06:00:08;9.55;;;8.73;;
44606;SDS011;30315;46.072;14.474;2023-04-01T06:02:39;9.93;;;8.40;;
44606;SDS011;30315;46.072;14.474;2023-04-01T06:05:19;7.60;;;7.00;;
44606;SDS011;30315;46.072;14.474;2023-04-01T06:07:49;7.25;;;6.68;;
44606;SDS011;30315;46.072;14.474;2023-04-01T06:10:26;7.50;;;6.90;;
44606;SDS011;30315;46.072;14.474;2023-04-01T06:18:52;6.15;;;5.75;;
44606;SDS011;30315;46.072;14.474;2023-04-01T06:21:48;6.20;;;5.80;;
44606;SDS011;30315;46.072;14.474;2023-04-01T06:24:49;5.35;;;5.00;;
44606;SDS011;30315;46.072;14.474;2023-04-01T06:30:33;4.05;;;3.83;;
44606;SDS011;30315;46.072;14.474;2023-04-01T06:50:40;3.67;;;3.30;;
44606;SDS011;30315;46.072;14.474;2023-04-01T06:56:54;3.22;;;3.03;;
44606;SDS011;30315;46.072;14.474;2023-04-01T06:59:31;3.50;;;3.20;;
44606;SDS011;30315;46.072;14.474;2023-04-01T07:05:05;4.15;;;3.78;;
44606;SDS011;30315;46.072;14.474;2023-04-01T07:10:11;3.40;;;3.20;;
44606;SDS011;30315;46.072;14.474;2023-04-01T07:13:10;3.38;;;3.13;;
44606;SDS011;30315;46.072;14.474;2023-04-01T07:16:37;5.82;;;3.58;;
44606;SDS011;30315;46.072;14.474;2023-04-01T07:18:56;3.17;;;2.97;;
44606;SDS011;30315;46.072;14.474;2023-04-01T07:21:58;2.67;;;2.58;;
44606;SDS011;30315;46.072;14.474;2023-04-01T07:24:49;3.38;;;2.95;;
44606;SDS011;30315;46.072;14.474;2023-04-01T07:27:18;2.97;;;2.77;;
44606;SDS011;30315;46.072;14.474;2023-04-01T07:29:45;2.53;;;2.42;;
44606;SDS011;30315;46.072;14.474;2023-04-01T07:32:15;3.10;;;2.42;;
44606;SDS011;30315;46.072;14.474;2023-04-01T07:35:07;2.55;;;2.35;;
44606;SDS011;30315;46.072;14.474;2023-04-01T07:49:08;2.55;;;2.35;;
44606;SDS011;30315;46.072;14.474;2023-04-01T07:52:06;2.38;;;2.28;;
44606;SDS011;30315;46.072;14.474;2023-04-01T08:00:30;2.10;;;2.00;;
44606;SDS011;30315;46.072;14.474;2023-04-01T08:09:26;2.28;;;2.17;;
44606;SDS011;30315;46.072;14.474;2023-04-01T08:15:47;2.60;;;2.50;;
44606;SDS011;30315;46.072;14.474;2023-04-01T08:21:32;2.95;;;2.75;;
44606;SDS011;30315;46.072;14.474;2023-04-01T08:24:11;2.55;;;2.40;;
44606;SDS011;30315;46.072;14.474;2023-04-01T08:27:23;2.63;;;2.42;;
44606;SDS011;30315;46.072;14.474;2023-04-01T08:33:00;2.88;;;2.67;;
44606;SDS011;30315;46.072;14.474;2023-04-01T08:35:39;2.92;;;2.80;;
44606;SDS011;30315;46.072;14.474;2023-04-01T08:38:14;4.05;;;2.30;;
44606;SDS011;30315;46.072;14.474;2023-04-01T08:49:39;2.50;;;2.40;;
44606;SDS011;30315;46.072;14.474;2023-04-01T08:55:51;3.10;;;2.90;;
44606;SDS011;30315;46.072;14.474;2023-04-01T08:58:42;3.55;;;3.25;;
44606;SDS011;30315;46.072;14.474;2023-04-01T09:10:11;3.70;;;3.40;;
44606;SDS011;30315;46.072;14.474;2023-04-01T09:29:13;3.28;;;2.90;;
44606;SDS011;30315;46.072;14.474;2023-04-01T09:46:54;3.50;;;3.30;;
44606;SDS011;30315;46.072;14.474;2023-04-01T09:52:20;4.03;;;3.45;;
44606;SDS011;30315;46.072;14.474;2023-04-01T10:12:29;4.40;;;4.00;;
44606;SDS011;30315;46.072;14.474;2023-04-01T10:18:27;4.35;;;3.80;;
44606;SDS011;30315;46.072;14.474;2023-04-01T10:24:56;4.30;;;3.97;;
44606;SDS011;30315;46.072;14.474;2023-04-01T10:36:22;3.42;;;3.20;;
44606;SDS011;30315;46.072;14.474;2023-04-01T10:45:42;4.18;;;3.88;;
44606;SDS011;30315;46.072;14.474;2023-04-01T11:00:22;4.18;;;3.78;;
44606;SDS011;30315;46.072;14.474;2023-04-01T11:14:52;4.82;;;4.43;;
44606;SDS011;30315;46.072;14.474;2023-04-01T11:26:21;4.15;;;3.85;;
44606;SDS011;30315;46.072;14.474;2023-04-01T11:29:39;4.95;;;4.20;;
44606;SDS011;30315;46.072;14.474;2023-04-01T11:32:42;4.28;;;3.97;;
44606;SDS011;30315;46.072;14.474;2023-04-01T11:41:49;4.70;;;4.28;;
44606;SDS011;30315;46.072;14.474;2023-04-01T11:45:08;4.55;;;4.10;;
44606;SDS011;30315;46.072;14.474;2023-04-01T11:50:33;3.70;;;3.40;;
44606;SDS011;30315;46.072;14.474;2023-04-01T11:53:10;3.72;;;3.53;;
44606;SDS011;30315;46.072;14.474;2023-04-01T11:55:58;6.00;;;4.60;;
44606;SDS011;30315;46.072;14.474;2023-04-01T12:01:28;5.15;;;4.60;;
44606;SDS011;30315;46.072;14.474;2023-04-01T12:15:33;4.72;;;2.95;;
44606;SDS011;30315;46.072;14.474;2023-04-01T12:23:54;2.40;;;2.13;;
44606;SDS011;30315;46.072;14.474;2023-04-01T12:26:52;2.13;;;2.00;;
44606;SDS011;30315;46.072;14.474;2023-04-01T12:46:19;1.63;;;1.52;;
44606;SDS011;30315;46.072;14.474;2023-04-01T12:49:19;1.95;;;1.85;;
44606;SDS011;30315;46.072;14.474;2023-04-01T12:59:37;1.67;;;1.20;;
44606;SDS011;30315;46.072;14.474;2023-04-01T13:21:04;1.17;;;1.08;;
44606;SDS011;30315;46.072;14.474;2023-04-01T13:26:16;2.13;;;1.77;;
44606;SDS011;30315;46.072;14.474;2023-04-01T13:31:27;2.83;;;2.15;;
44606;SDS011;30315;46.072;14.474;2023-04-01T13:35:01;2.58;;;2.25;;
44606;SDS011;30315;46.072;14.474;2023-04-01T13:42:49;6.25;;;2.45;;
44606;SDS011;30315;46.072;14.474;2023-04-01T13:45:26;4.35;;;2.72;;
44606;SDS011;30315;46.072;14.474;2023-04-01T14:05:09;4.00;;;2.88;;
44606;SDS011;30315;46.072;14.474;2023-04-01T14:10:25;5.43;;;4.18;;
44606;SDS011;30315;46.072;14.474;2023-04-01T14:21:33;4.83;;;3.53;;
44606;SDS011;30315;46.072;14.474;2023-04-01T14:27:03;2.90;;;2.70;;
44606;SDS011;30315;46.072;14.474;2023-04-01T14:35:31;4.15;;;2.90;;
44606;SDS011;30315;46.072;14.474;2023-04-01T14:54:48;3.28;;;3.05;;
44606;SDS011;30315;46.072;14.474;2023-04-01T14:59:51;3.13;;;2.83;;
44606;SDS011;30315;46.072;14.474;2023-04-01T15:02:48;3.10;;;2.90;;
44606;SDS011;30315;46.072;14.474;2023-04-01T15:11:06;2.90;;;2.63;;
44606;SDS011;30315;46.072;14.474;2023-04-01T15:21:56;4.50;;;3.20;;
44606;SDS011;30315;46.072;14.474;2023-04-01T15:39:36;4.15;;;2.67;;
44606;SDS011;30315;46.072;14.474;2023-04-01T15:42:31;5.53;;;2.50;;
44606;SDS011;30315;46.072;14.474;2023-04-01T15:45:16;4.13;;;3.78;;
44606;SDS011;30315;46.072;14.474;2023-04-01T15:50:58;3.60;;;3.30;;
44606;SDS011;30315;46.072;14.474;2023-04-01T16:02:10;3.22;;;2.90;;
44606;SDS011;30315;46.072;14.474;2023-04-01T16:05:21;2.90;;;2.67;;
44606;SDS011;30315;46.072;14.474;2023-04-01T16:14:06;9.73;;;5.15;;
44606;SDS011;30315;46.072;14.474;2023-04-01T16:22:28;3.17;;;2.97;;
44606;SDS011;30315;46.072;14.474;2023-04-01T16:28:38;2.75;;;2.53;;
44606;SDS011;30315;46.072;14.474;2023-04-01T16:31:09;1.40;;;1.30;;
44606;SDS011;30315;46.072;14.474;2023-04-01T16:33:47;1.90;;;1.80;;
44606;SDS011;30315;46.072;14.474;2023-04-01T16:36:28;3.28;;;1.40;;
44606;SDS011;30315;46.072;14.474;2023-04-01T16:41:51;1.80;;;1.30;;
44606;SDS011;30315;46.072;14.474;2023-04-01T16:44:53;4.32;;;3.70;;
44606;SDS011;30315;46.072;14.474;2023-04-01T16:50:19;1.70;;;1.60;;
44606;SDS011;30315;46.072;14.474;2023-04-01T16:54:00;1.55;;;1.45;;
44606;SDS011;30315;46.072;14.474;2023-04-01T16:56:10;2.80;;;1.52;;
44606;SDS011;30315;46.072;14.474;2023-04-01T17:01:27;1.50;;;1.40;;
44606;SDS011;30315;46.072;14.474;2023-04-01T17:04:04;3.60;;;2.13;;
44606;SDS011;30315;46.072;14.474;2023-04-01T17:06:44;2.65;;;2.45;;
44606;SDS011;30315;46.072;14.474;2023-04-01T17:09:42;5.10;;;2.42;;
44606;SDS011;30315;46.072;14.474;2023-04-01T17:12:33;2.95;;;1.92;;
44606;SDS011;30315;46.072;14.474;2023-04-01T17:26:09;4.00;;;2.40;;
44606;SDS011;30315;46.072;14.474;2023-04-01T17:28:50;4.68;;;2.97;;
44606;SDS011;30315;46.072;14.474;2023-04-01T17:31:39;3.35;;;3.08;;
44606;SDS011;30315;46.072;14.474;2023-04-01T17:44:58;3.33;;;2.92;;
44606;SDS011;30315;46.072;14.474;2023-04-01T17:55:48;2.72;;;2.35;;
44606;SDS011;30315;46.072;14.474;2023-04-01T17:58:18;5.15;;;2.65;;
44606;SDS011;30315;46.072;14.474;2023-04-01T18:00:50;3.10;;;2.65;;
44606;SDS011;30315;46.072;14.474;2023-04-01T18:06:03;3.70;;;3.40;;
44606;SDS011;30315;46.072;14.474;2023-04-01T18:08:47;5.82;;;3.80;;
44606;SDS011;30315;46.072;14.474;2023-04-01T18:19:56;3.70;;;2.90;;
44606;SDS011;30315;46.072;14.474;2023-04-01T18:25:24;2.60;;;2.40;;
44606;SDS011;30315;46.072;14.474;2023-04-01T18:28:05;2.70;;;2.50;;
44606;SDS011;30315;46.072;14.474;2023-04-01T18:30:41;5.38;;;3.00;;
44606;SDS011;30315;46.072;14.474;2023-04-01T18:35:48;4.85;;;2.75;;
44606;SDS011;30315;46.072;14.474;2023-04-01T18:38:29;3.10;;;2.80;;
44606;SDS011;30315;46.072;14.474;2023-04-01T18:46:30;3.75;;;3.13;;
44606;SDS011;30315;46.072;14.474;2023-04-01T18:54:41;6.00;;;5.40;;
44606;SDS011;30315;46.072;14.474;2023-04-01T18:57:42;6.70;;;5.47;;
44606;SDS011;30315;46.072;14.474;2023-04-01T19:00:22;5.63;;;5.13;;
44606;SDS011;30315;46.072;14.474;2023-04-01T19:05:52;9.15;;;5.90;;
44606;SDS011;30315;46.072;14.474;2023-04-01T19:08:29;10.75;;;7.55;;
44606;SDS011;30315;46.072;14.474;2023-04-01T19:14:04;7.70;;;5.75;;
44606;SDS011;30315;46.072;14.474;2023-04-01T19:19:24;5.38;;;4.97;;
44606;SDS011;30315;46.072;14.474;2023-04-01T19:22:17;5.40;;;4.85;;
44606;SDS011;30315;46.072;14.474;2023-04-01T19:27:59;8.07;;;5.40;;
44606;SDS011;30315;46.072;14.474;2023-04-01T19:30:50;7.20;;;5.93;;
44606;SDS011;30315;46.072;14.474;2023-04-01T19:43:46;8.25;;;7.25;;
44606;SDS011;30315;46.072;14.474;2023-04-01T19:46:33;5.88;;;5.18;;
44606;SDS011;30315;46.072;14.474;2023-04-01T19:52:31;4.60;;;4.20;;
44606;SDS011;30315;46.072;14.474;2023-04-01T20:00:43;11.57;;;7.97;;
44606;SDS011;30315;46.072;14.474;2023-04-01T20:08:54;18.92;;;12.32;;
44606;SDS011;30315;46.072;14.474;2023-04-01T20:12:17;22.67;;;14.95;;
44606;SDS011;30315;46.072;14.474;2023-04-01T20:20:15;43.88;;;22.45;;
44606;SDS011;30315;46.072;14.474;2023-04-01T20:25:22;44.50;;;23.67;;
44606;SDS011;30315;46.072;14.474;2023-04-01T20:27:58;35.38;;;18.45;;
44606;SDS011;30315;46.072;14.474;2023-04-01T20:46:45;26.55;;;14.75;;
44606;SDS011;30315;46.072;14.474;2023-04-01T20:52:18;16.05;;;10.75;;
44606;SDS011;30315;46.072;14.474;2023-04-01T20:55:17;17.42;;;11.52;;
44606;SDS011;30315;46.072;14.474;2023-04-01T21:00:37;22.83;;;15.30;;
44606;SDS011;30315;46.072;14.474;2023-04-01T21:11:30;15.27;;;11.48;;
44606;SDS011;30315;46.072;14.474;2023-04-01T21:14:32;15.82;;;10.93;;
44606;SDS011;30315;46.072;14.474;2023-04-01T22:10:34;9.90;;;7.63;;
44606;SDS011;30315;46.072;14.474;2023-04-01T22:15:56;8.60;;;7.32;;
44606;SDS011;30315;46.072;14.474;2023-04-01T22:18:39;8.60;;;7.75;;
44606;SDS011;30315;46.072;14.474;2023-04-01T22:21:40;10.82;;;8.68;;
44606;SDS011;30315;46.072;14.474;2023-04-01T22:24:39;11.70;;;8.80;;
44606;SDS011;30315;46.072;14.474;2023-04-01T22:32:59;15.90;;;11.88;;
44606;SDS011;30315;46.072;14.474;2023-04-01T22:36:02;11.57;;;9.40;;
44606;SDS011;30315;46.072;14.474;2023-04-01T22:38:49;11.90;;;8.60;;
44606;SDS011;30315;46.072;14.474;2023-04-01T22:41:30;8.02;;;6.65;;
44606;SDS011;30315;46.072;14.474;2023-04-01T22:56:08;8.77;;;6.68;;
44606;SDS011;30315;46.072;14.474;2023-04-01T22:58:52;9.35;;;7.28;;
44606;SDS011;30315;46.072;14.474;2023-04-01T23:01:53;9.10;;;7.50;;
44606;SDS011;30315;46.072;14.474;2023-04-01T23:04:41;13.60;;;8.98;;
44606;SDS011;30315;46.072;14.474;2023-04-01T23:10:18;11.43;;;9.00;;
44606;SDS011;30315;46.072;14.474;2023-04-01T23:13:20;9.45;;;7.43;;
44606;SDS011;30315;46.072;14.474;2023-04-01T23:15:53;8.25;;;7.03;;
44606;SDS011;30315;46.072;14.474;2023-04-01T23:18:25;9.52;;;7.60;;
44606;SDS011;30315;46.072;14.474;2023-04-01T23:21:13;9.15;;;7.20;;
44606;SDS011;30315;46.072;14.474;2023-04-01T23:29:39;7.55;;;6.93;;
44606;SDS011;30315;46.072;14.474;2023-04-01T23:32:15;7.85;;;6.90;;
44606;SDS011;30315;46.072;14.474;2023-04-01T23:37:17;8.75;;;7.30;;
44606;SDS011;30315;46.072;14.474;2023-04-01T23:39:48;9.13;;;7.13;;
44606;SDS011;30315;46.072;14.474;2023-04-01T23:44:59;10.13;;;7.68;;
44606;SDS011;30315;46.072;14.474;2023-04-01T23:47:33;9.50;;;7.18;;
44606;SDS011;30315;46.072;14.474;2023-04-01T23:50:10;9.43;;;7.13;;
44606;SDS011;30315;46.072;14.474;2023-04-01T23:53:21;11.63;;;7.35;;
44606;SDS011;30315;46.072;14.474;2023-04-01T23:55:51;8.98;;;7.57;;
44606;SDS011;30315;46.072;14.474;2023-04-01T23:58:24;9.93;;;7.32;;
